createdAt,value
2018-06-12T00:02:06.879Z,20.10
2018-06-12T00:04:38.876Z,20.00
2018-06-12T00:07:10.924Z,20.00
2018-06-12T00:09:42.733Z,20.00
2018-06-12T00:12:14.568Z,20.00
2018-06-12T00:14:46.782Z,20.10
2018-06-12T00:19:49.961Z,20.10
2018-06-12T00:22:22.075Z,19.90
2018-06-12T00:27:25.462Z,19.80
2018-06-12T00:29:57.313Z,19.70
2018-06-12T00:32:29.693Z,19.70
2018-06-12T00:35:02.113Z,19.70
2018-06-12T00:37:34.160Z,19.80
2018-06-12T00:42:37.660Z,19.80
2018-06-12T00:45:09.633Z,19.80
2018-06-12T00:47:41.498Z,19.80
2018-06-12T00:50:13.583Z,19.80
2018-06-12T00:52:48.691Z,19.80
2018-06-12T00:55:22.564Z,19.80
2018-06-12T00:57:54.393Z,19.80
2018-06-12T01:00:26.507Z,19.80
2018-06-12T01:02:58.993Z,19.80
2018-06-12T01:05:30.934Z,19.80
2018-06-12T01:08:03.196Z,19.80
2018-06-12T01:10:35.344Z,19.80
2018-06-12T01:15:40.837Z,19.80
2018-06-12T01:18:12.904Z,19.70
2018-06-12T01:20:44.988Z,19.70
2018-06-12T01:23:16.873Z,19.70
2018-06-12T01:31:03.925Z,19.50
2018-06-12T01:33:36.063Z,19.60
2018-06-12T01:36:08.037Z,19.60
2018-06-12T01:38:40.162Z,19.60
2018-06-12T01:41:12.217Z,19.60
2018-06-12T01:43:44.445Z,19.60
2018-06-12T01:46:16.224Z,19.60
2018-06-12T01:51:19.251Z,19.50
2018-06-12T01:53:52.362Z,19.40
2018-06-12T01:56:32.045Z,19.50
2018-06-12T01:59:04.046Z,19.50
2018-06-12T02:01:36.068Z,19.60
2018-06-12T02:04:08.193Z,19.60
2018-06-12T02:06:40.504Z,19.60
2018-06-12T02:09:12.665Z,19.40
2018-06-12T02:11:45.035Z,19.30
2018-06-12T02:14:17.280Z,19.20
2018-06-12T02:16:50.798Z,19.10
2018-06-12T02:19:23.003Z,19.00
2018-06-12T02:21:55.000Z,19.00
2018-06-12T02:24:27.021Z,19.00
2018-06-12T02:26:59.662Z,19.10
2018-06-12T02:29:31.636Z,19.10
2018-06-12T02:32:04.495Z,19.10
2018-06-12T02:34:36.453Z,19.00
2018-06-12T02:37:08.658Z,19.10
2018-06-12T02:39:40.553Z,19.10
2018-06-12T02:42:12.618Z,19.10
2018-06-12T02:44:44.589Z,19.00
2018-06-12T02:47:16.405Z,19.00
2018-06-12T02:49:48.533Z,19.00
2018-06-12T02:52:47.664Z,19.00
2018-06-12T02:55:21.741Z,19.00
2018-06-12T03:00:37.558Z,18.90
2018-06-12T03:03:09.910Z,18.70
2018-06-12T03:08:13.204Z,18.40
2018-06-12T03:10:45.249Z,18.60
2018-06-12T03:15:48.253Z,18.90
2018-06-12T03:18:20.402Z,18.90
2018-06-12T03:20:52.842Z,18.90
2018-06-12T03:23:24.743Z,19.00
2018-06-12T03:26:01.252Z,19.00
2018-06-12T03:28:33.062Z,19.00
2018-06-12T03:31:04.903Z,18.90
2018-06-12T03:33:36.811Z,18.90
2018-06-12T03:36:08.651Z,18.90
2018-06-12T03:38:40.730Z,18.80
2018-06-12T03:41:12.613Z,18.80
2018-06-12T03:43:44.549Z,18.70
2018-06-12T03:46:16.466Z,18.50
2018-06-12T03:48:48.239Z,18.40
2018-06-12T03:51:20.420Z,18.30
2018-06-12T03:53:52.544Z,18.30
2018-06-12T03:56:24.360Z,18.30
2018-06-12T03:58:56.383Z,18.20
2018-06-12T04:01:28.592Z,18.10
2018-06-12T04:04:01.043Z,18.00
2018-06-12T04:06:37.419Z,17.90
2018-06-12T04:09:11.019Z,18.00
2018-06-12T04:11:42.947Z,18.30
2018-06-12T04:16:45.949Z,18.20
2018-06-12T04:19:19.130Z,18.10
2018-06-12T04:21:51.082Z,18.10
2018-06-12T04:24:22.905Z,18.10
2018-06-12T04:26:54.997Z,18.10
2018-06-12T04:29:27.248Z,18.10
2018-06-12T04:31:59.662Z,18.00
2018-06-12T04:34:31.638Z,18.00
2018-06-12T04:37:04.909Z,18.00
2018-06-12T04:39:38.537Z,18.10
2018-06-12T04:42:10.870Z,18.60
2018-06-12T04:44:43.086Z,19.00
2018-06-12T04:47:15.925Z,18.90
2018-06-12T04:49:48.056Z,18.70
2018-06-12T04:54:53.050Z,18.60
2018-06-12T04:57:24.899Z,18.90
2018-06-12T04:59:56.788Z,19.10
2018-06-12T05:02:28.845Z,19.20
2018-06-12T05:05:01.433Z,19.20
2018-06-12T05:07:33.363Z,19.40
2018-06-12T05:10:05.121Z,19.40
2018-06-12T05:12:37.112Z,19.70
2018-06-12T05:15:09.323Z,20.10
2018-06-12T05:20:16.663Z,20.30
2018-06-12T05:22:48.871Z,20.50
2018-06-12T05:27:52.547Z,19.70
2018-06-12T05:30:25.090Z,19.50
2018-06-12T05:32:57.792Z,19.60
2018-06-12T05:35:30.019Z,19.70
2018-06-12T05:38:02.465Z,19.80
2018-06-12T05:40:34.447Z,19.70
2018-06-12T05:43:06.687Z,19.70
2018-06-12T05:48:10.246Z,19.50
2018-06-12T05:53:15.564Z,19.50
2018-06-12T05:55:47.562Z,19.50
2018-06-12T05:58:19.969Z,19.70
2018-06-12T06:03:24.979Z,20.00
2018-06-12T06:05:57.372Z,20.10
2018-06-12T06:08:29.746Z,20.00
2018-06-12T06:11:02.419Z,20.00
2018-06-12T06:13:34.861Z,19.90
2018-06-12T06:18:38.565Z,20.10
2018-06-12T06:21:10.544Z,20.30
2018-06-12T06:23:42.582Z,20.50
2018-06-12T06:26:15.432Z,20.60
2018-06-12T06:28:47.362Z,20.40
2018-06-12T06:31:19.324Z,20.70
2018-06-12T06:33:51.243Z,20.90
2018-06-12T06:36:23.266Z,21.00
2018-06-12T06:38:55.286Z,20.90
2018-06-12T06:41:27.417Z,21.20
2018-06-12T06:43:59.686Z,21.00
2018-06-12T06:46:31.657Z,21.50
2018-06-12T06:49:03.992Z,21.70
2018-06-12T06:51:35.870Z,22.10
2018-06-12T06:54:07.798Z,21.80
2018-06-12T06:59:12.065Z,21.80
2018-06-12T07:01:44.129Z,21.70
2018-06-12T07:04:16.279Z,22.20
2018-06-12T07:06:48.289Z,22.10
2018-06-12T07:09:20.214Z,22.20
2018-06-12T07:11:52.153Z,22.20
2018-06-12T07:16:56.049Z,22.30
2018-06-12T07:24:32.542Z,22.50
2018-06-12T07:27:05.165Z,22.70
2018-06-12T07:29:37.745Z,22.50
2018-06-12T07:32:10.467Z,22.80
2018-06-12T07:34:43.581Z,23.20
2018-06-12T07:39:48.235Z,23.30
2018-06-12T07:44:52.753Z,22.80
2018-06-12T07:47:25.278Z,23.00
2018-06-12T07:49:57.973Z,23.00
2018-06-12T07:52:31.137Z,23.30
2018-06-12T07:55:04.157Z,23.00
2018-06-12T07:57:36.679Z,22.90
2018-06-12T08:02:41.892Z,23.70
2018-06-12T08:08:55.792Z,23.80
2018-06-12T08:11:28.372Z,24.70
2018-06-12T08:16:34.682Z,24.70
2018-06-12T08:19:07.778Z,24.50
2018-06-12T08:21:40.435Z,24.20
2018-06-12T08:24:13.101Z,24.60
2018-06-12T08:26:45.890Z,24.70
2018-06-12T08:34:22.139Z,24.20
2018-06-12T08:36:54.730Z,24.50
2018-06-12T08:39:27.360Z,24.60
2018-06-12T08:42:01.272Z,24.30
2018-06-12T08:47:05.612Z,24.50
2018-06-12T08:54:42.983Z,25.20
2018-06-12T08:57:15.521Z,24.70
2018-06-12T09:04:51.996Z,24.10
2018-06-12T09:07:24.583Z,24.60
2018-06-12T09:09:57.468Z,24.30
2018-06-12T09:12:30.009Z,24.00
2018-06-12T09:15:02.934Z,24.10
2018-06-12T09:20:07.414Z,23.90
2018-06-12T09:22:40.100Z,23.60
2018-06-12T09:25:18.564Z,24.00
2018-06-12T09:27:51.350Z,24.00
2018-06-12T09:32:55.792Z,24.50
2018-06-12T09:35:28.589Z,24.80
2018-06-12T09:40:34.333Z,25.20
2018-06-12T09:43:09.300Z,25.30
2018-06-12T09:45:42.065Z,25.50
2018-06-12T09:48:14.767Z,26.30
2018-06-12T09:50:47.784Z,26.40
2018-06-12T09:53:20.549Z,26.80
2018-06-12T09:55:53.202Z,26.00
2018-06-12T09:58:26.542Z,26.00
2018-06-12T10:01:04.809Z,26.30
2018-06-12T10:03:37.382Z,26.30
2018-06-12T10:06:10.067Z,26.60
2018-06-12T10:08:43.513Z,26.50
2018-06-12T10:11:16.142Z,26.30
2018-06-12T10:13:48.668Z,25.60
2018-06-12T10:16:21.642Z,25.60
2018-06-12T10:18:54.339Z,26.00
2018-06-12T10:26:33.600Z,26.40
2018-06-12T10:29:06.514Z,26.60
2018-06-12T10:31:40.440Z,27.00
2018-06-12T10:34:13.192Z,27.00
2018-06-12T10:36:45.709Z,26.80
2018-06-12T10:41:51.208Z,26.30
2018-06-12T10:44:23.965Z,25.90
2018-06-12T10:46:57.318Z,26.00
2018-06-12T10:49:29.985Z,25.80
2018-06-12T10:54:35.846Z,26.70
2018-06-12T10:57:09.461Z,27.40
2018-06-12T10:59:43.268Z,28.00
2018-06-12T11:02:15.924Z,28.00
2018-06-12T11:04:49.282Z,27.70
2018-06-12T11:09:56.001Z,27.80
2018-06-12T11:12:28.678Z,27.60
2018-06-12T11:15:01.777Z,27.40
2018-06-12T11:17:34.355Z,27.30
2018-06-12T11:20:07.063Z,26.60
2018-06-12T11:22:39.610Z,26.50
2018-06-12T11:27:50.968Z,25.80
2018-06-12T11:30:23.717Z,25.80
2018-06-12T11:32:57.134Z,26.10
2018-06-12T11:35:29.666Z,26.30
2018-06-12T11:43:06.351Z,26.50
2018-06-12T11:50:42.535Z,26.70
2018-06-12T11:53:15.472Z,26.90
2018-06-12T11:55:47.988Z,26.60
2018-06-12T11:58:20.553Z,25.50
2018-06-12T12:00:53.420Z,25.40
2018-06-12T12:03:25.816Z,25.60
2018-06-12T12:05:58.644Z,25.80
2018-06-12T12:11:03.887Z,26.00
2018-06-12T12:13:36.478Z,26.20
2018-06-12T12:16:09.073Z,25.80
2018-06-12T12:21:14.021Z,25.70
2018-06-12T12:26:19.708Z,25.50
2018-06-12T12:28:54.124Z,25.80
2018-06-12T12:31:27.288Z,26.20
2018-06-12T12:36:34.865Z,27.10
2018-06-12T12:39:10.712Z,26.60
2018-06-12T12:41:44.150Z,26.40
2018-06-12T12:46:50.259Z,25.90
2018-06-12T12:49:23.950Z,25.80
2018-06-12T12:51:57.278Z,25.70
2018-06-12T12:54:29.788Z,25.70
2018-06-12T12:57:03.126Z,25.80
2018-06-12T12:59:35.613Z,25.80
2018-06-12T13:02:08.001Z,26.10
2018-06-12T13:04:40.191Z,26.30
2018-06-12T13:07:12.411Z,26.30
2018-06-12T13:12:18.438Z,25.60
2018-06-12T13:14:51.583Z,25.40
2018-06-12T13:24:57.297Z,26.20
2018-06-12T13:30:00.652Z,25.60
2018-06-12T13:32:32.700Z,25.40
2018-06-12T13:35:04.555Z,25.30
2018-06-12T13:40:07.758Z,25.20
2018-06-12T13:45:10.873Z,25.00
2018-06-12T13:47:45.483Z,25.10
2018-06-12T13:52:52.464Z,25.10
2018-06-12T13:55:27.397Z,24.80
2018-06-12T14:00:31.101Z,25.00
2018-06-12T14:03:03.263Z,24.80
2018-06-12T14:05:35.081Z,24.80
2018-06-12T14:08:06.880Z,25.10
2018-06-12T14:10:39.818Z,25.00
2018-06-12T14:13:11.728Z,25.00
2018-06-12T14:18:16.900Z,24.90
2018-06-12T14:20:48.985Z,25.20
2018-06-12T14:23:20.796Z,25.40
2018-06-12T14:25:52.574Z,25.70
2018-06-12T14:28:24.608Z,25.70
2018-06-12T14:30:56.389Z,25.70
2018-06-12T14:33:28.230Z,25.70
2018-06-12T14:36:00.509Z,25.40
2018-06-12T14:38:32.492Z,25.10
2018-06-12T14:41:04.589Z,24.80
2018-06-12T14:43:36.484Z,24.80
2018-06-12T14:46:08.286Z,24.80
2018-06-12T14:48:40.144Z,24.70
2018-06-12T14:51:11.956Z,24.70
2018-06-12T14:53:43.842Z,24.60
2018-06-12T14:56:16.396Z,24.30
2018-06-12T14:58:48.284Z,24.10
2018-06-12T15:01:20.071Z,23.90
2018-06-12T15:03:51.879Z,23.90
2018-06-12T15:06:25.097Z,24.00
2018-06-12T15:08:57.112Z,23.80
2018-06-12T15:11:29.018Z,23.80
2018-06-12T15:14:00.993Z,23.80
2018-06-12T15:16:32.958Z,23.70
2018-06-12T15:21:36.838Z,23.80
2018-06-12T15:24:08.558Z,23.90
2018-06-12T15:26:40.272Z,23.90
2018-06-12T15:29:12.542Z,23.80
2018-06-12T15:34:15.672Z,23.60
2018-06-12T15:36:47.471Z,23.50
2018-06-12T15:39:19.219Z,23.40
2018-06-12T15:41:50.877Z,23.50
2018-06-12T15:44:22.627Z,23.60
2018-06-12T15:46:55.814Z,23.70
2018-06-12T15:51:59.546Z,23.50
2018-06-12T15:57:02.988Z,23.20
2018-06-12T15:59:34.923Z,23.00
2018-06-12T16:02:06.792Z,23.00
2018-06-12T16:04:38.613Z,23.00
2018-06-12T16:07:10.346Z,22.90
2018-06-12T16:12:13.523Z,22.90
2018-06-12T16:14:45.551Z,22.80
2018-06-12T16:17:17.506Z,22.80
2018-06-12T16:19:49.699Z,22.80
2018-06-12T16:22:21.503Z,22.70
2018-06-12T16:24:53.242Z,22.70
2018-06-12T16:27:25.080Z,22.70
2018-06-12T16:29:56.908Z,22.80
2018-06-12T16:32:29.523Z,22.90
2018-06-12T16:35:01.916Z,22.80
2018-06-12T16:37:33.890Z,22.70
2018-06-12T16:40:05.949Z,22.60
2018-06-12T16:42:41.072Z,22.60
2018-06-12T16:45:15.386Z,22.50
2018-06-12T16:47:48.027Z,22.50
2018-06-12T16:50:20.416Z,22.50
2018-06-12T16:52:52.152Z,22.50
2018-06-12T16:57:55.003Z,22.50
2018-06-12T17:00:26.941Z,22.40
2018-06-12T17:02:58.826Z,22.30
2018-06-12T17:05:30.807Z,22.10
2018-06-12T17:10:33.141Z,22.00
2018-06-12T17:15:36.210Z,21.90
2018-06-12T17:18:08.176Z,21.90
2018-06-12T17:20:40.249Z,21.90
2018-06-12T17:23:12.106Z,21.90
2018-06-12T17:25:44.047Z,21.90
2018-06-12T17:28:17.121Z,21.90
2018-06-12T17:30:49.495Z,21.90
2018-06-12T17:33:21.361Z,21.90
2018-06-12T17:35:53.262Z,21.80
2018-06-12T17:45:59.544Z,21.70
2018-06-12T17:48:31.477Z,21.60
2018-06-12T17:51:03.984Z,21.60
2018-06-12T17:53:36.185Z,21.60
2018-06-12T17:56:09.161Z,21.60
2018-06-12T17:58:41.196Z,21.50
2018-06-12T18:01:13.931Z,21.60
2018-06-12T18:03:46.153Z,21.50
2018-06-12T18:08:52.651Z,21.40
2018-06-12T18:11:25.358Z,21.30
2018-06-12T18:16:28.844Z,21.20
2018-06-12T18:19:01.253Z,21.10
2018-06-12T18:21:33.133Z,21.10
2018-06-12T18:29:07.684Z,21.00
2018-06-12T18:34:10.841Z,21.00
2018-06-12T18:39:14.124Z,21.00
2018-06-12T18:41:46.042Z,21.00
2018-06-12T18:44:18.341Z,21.00
2018-06-12T18:49:21.699Z,21.00
2018-06-12T18:51:53.672Z,21.00
2018-06-12T18:54:25.586Z,21.00
2018-06-12T18:59:29.478Z,21.00
2018-06-12T19:04:32.860Z,21.10
2018-06-12T19:07:04.948Z,21.10
2018-06-12T19:09:36.637Z,21.10
2018-06-12T19:12:09.436Z,21.00
2018-06-12T19:14:41.343Z,21.00
2018-06-12T19:17:13.337Z,21.00
2018-06-12T19:19:45.062Z,21.00
2018-06-12T19:22:17.151Z,20.90
2018-06-12T19:24:48.927Z,20.90
2018-06-12T19:27:20.785Z,20.80
2018-06-12T19:29:52.922Z,20.80
2018-06-12T19:32:27.173Z,20.90
2018-06-12T19:34:59.518Z,20.80
2018-06-12T19:37:31.702Z,20.80
2018-06-12T19:40:04.267Z,20.80
2018-06-12T19:42:36.064Z,20.70
2018-06-12T19:45:08.259Z,20.70
2018-06-12T19:47:42.502Z,20.70
2018-06-12T19:50:15.252Z,20.60
2018-06-12T19:52:51.021Z,20.60
2018-06-12T19:55:28.442Z,20.60
2018-06-12T19:58:00.796Z,20.60
2018-06-12T20:00:32.777Z,20.50
2018-06-12T20:03:05.123Z,20.40
2018-06-12T20:05:37.084Z,20.30
2018-06-12T20:08:09.150Z,20.30
2018-06-12T20:10:41.137Z,20.30
2018-06-12T20:13:13.527Z,20.20
2018-06-12T20:15:45.725Z,20.30
2018-06-12T20:20:49.093Z,20.20
2018-06-12T20:23:22.635Z,20.20
2018-06-12T20:25:54.668Z,20.20
2018-06-12T20:28:26.770Z,20.30
2018-06-12T20:33:30.723Z,20.10
2018-06-12T20:36:03.400Z,20.00
2018-06-12T20:38:35.581Z,19.90
2018-06-12T20:41:07.736Z,19.80
2018-06-12T20:43:39.636Z,19.80
2018-06-12T20:46:11.613Z,19.70
2018-06-12T20:48:43.428Z,19.70
2018-06-12T20:51:15.511Z,19.60
2018-06-12T20:53:47.454Z,19.60
2018-06-12T20:56:19.563Z,19.60
2018-06-12T20:58:51.564Z,19.50
2018-06-12T21:01:23.497Z,19.60
2018-06-12T21:03:56.128Z,19.50
2018-06-12T21:06:28.144Z,19.60
2018-06-12T21:09:00.573Z,19.60
2018-06-12T21:11:32.487Z,19.60
2018-06-12T21:14:04.826Z,19.70
2018-06-12T21:16:37.006Z,19.70
2018-06-12T21:19:10.098Z,19.70
2018-06-12T21:21:42.110Z,19.60
2018-06-12T21:24:13.998Z,19.60
2018-06-12T21:26:46.167Z,19.50
2018-06-12T21:29:18.166Z,19.50
2018-06-12T21:31:50.233Z,19.40
2018-06-12T21:34:22.738Z,19.40
2018-06-12T21:36:55.216Z,19.30
2018-06-12T21:39:27.234Z,19.30
2018-06-12T21:41:59.646Z,19.30
2018-06-12T21:44:31.653Z,19.30
2018-06-12T21:47:04.216Z,19.30
2018-06-12T21:49:36.176Z,19.30
2018-06-12T21:52:08.346Z,19.20
2018-06-12T21:54:41.636Z,19.10
2018-06-12T21:57:13.738Z,19.10
2018-06-12T21:59:45.610Z,19.10
2018-06-12T22:02:17.585Z,19.10
2018-06-12T22:04:49.713Z,19.10
2018-06-12T22:07:21.524Z,19.00
2018-06-12T22:09:53.579Z,18.90
2018-06-12T22:12:25.381Z,18.80
2018-06-12T22:15:04.960Z,18.80
2018-06-12T22:17:52.250Z,18.90
2018-06-12T22:20:27.289Z,18.90
2018-06-12T22:22:59.566Z,19.00
2018-06-12T22:28:03.283Z,18.90
2018-06-12T22:30:35.280Z,18.80
2018-06-12T22:33:08.080Z,18.80
2018-06-12T22:35:40.688Z,18.80
2018-06-12T22:38:13.168Z,18.80
2018-06-12T22:40:46.399Z,18.70
2018-06-12T22:43:18.437Z,18.70
2018-06-12T22:45:50.953Z,18.70
2018-06-12T22:48:22.852Z,18.60
2018-06-12T22:50:54.824Z,18.60
2018-06-12T22:55:57.836Z,18.20
2018-06-12T23:01:02.169Z,17.90
2018-06-12T23:03:34.241Z,17.80
2018-06-12T23:06:06.988Z,17.80
2018-06-12T23:08:39.000Z,17.80
2018-06-12T23:11:11.172Z,17.80
2018-06-12T23:13:43.199Z,17.80
2018-06-12T23:21:49.065Z,17.70
2018-06-12T23:24:21.087Z,17.70
2018-06-12T23:29:24.456Z,17.60
2018-06-12T23:31:56.396Z,17.60
2018-06-12T23:34:28.690Z,17.60
2018-06-12T23:37:01.118Z,17.50
2018-06-12T23:39:33.116Z,17.50
2018-06-12T23:42:05.395Z,17.40
2018-06-12T23:49:39.845Z,17.40
2018-06-12T23:52:11.905Z,17.30
2018-06-12T23:54:43.832Z,17.40
2018-06-12T23:59:47.456Z,17.30
